Terminal Aerodrome Forecast
Issued by NWS Blacksburg, VA

Home | Current Version | Previous Version | Text Only | Print | Product List | Glossary On
Versions: 1 2 3 4 5 6 7 8 9 10 11 12 13 14 15
000
FTUS41 KRNK 211720
TAFLYH
TAF
KLYH 211720Z 2118/2218 19004KT 4SM BR BKN003
     FM212000 17004KT P6SM BKN015
     FM220000 VRB03KT P6SM VCSH SCT003 OVC015
     FM220300 00000KT P6SM VCSH SCT003 OVC008
     FM220700 00000KT 1SM BR OVC008
     FM221300 VRB03KT P6SM VCSH OVC008
     FM221500 07006KT 6SM -SHRA OVC008
     FM221700 08006KT 3SM RA OVC008=

USA.gov is the U.S. government's official web portal to all federal, state and local government web resources and services.